Gilberts, Illinois
Current Conditions -  °F | °C
As of 11:52 AM on Saturday 25 Oct 2014 (Local Time) from KDPA Reporting Station
Clear Clear  
Wind Chill: 69°   Ceiling: Unl
Heat Index: 69°   Visibility: 10mi
Dew Point: 45°   Wind: 14mph
Humidity: 42%   Direction: 310°NW
Pressure: 29.96"   Gusts: NA
Location:  42.1°N, 88.37°W
Report Text: KDPA 251652Z 31012KT 10SM CLR 21/07 A2996 RMK AO2 SLP145 T02060072
Loading
Personal Weather Stations






























Interactive Weather Map
Tropical Storm Tracking
New forecast layout! Learn more

10-Day Weather Forecast

Advertisements
Track Severe Weather on mobile